createdAt,value
2018-11-10T00:01:09.623Z,81.73
2018-11-10T00:03:41.687Z,81.64
2018-11-10T00:06:13.522Z,82.00
2018-11-10T00:08:44.279Z,81.79
2018-11-10T00:11:14.714Z,81.97
2018-11-10T00:13:51.711Z,81.18
2018-11-10T00:16:22.157Z,81.33
2018-11-10T00:18:52.739Z,81.62
2018-11-10T00:21:23.587Z,81.13
2018-11-10T00:23:53.823Z,81.57
2018-11-10T00:26:25.798Z,81.50
2018-11-10T00:28:55.825Z,81.19
2018-11-10T00:31:25.824Z,80.64
2018-11-10T00:33:55.991Z,81.28
2018-11-10T00:36:26.831Z,81.69
2018-11-10T00:38:56.822Z,81.76
2018-11-10T00:41:27.858Z,81.23
2018-11-10T00:43:57.790Z,80.53
2018-11-10T00:46:28.915Z,81.33
2018-11-10T00:48:58.925Z,81.49
2018-11-10T00:51:29.934Z,81.52
2018-11-10T00:54:01.088Z,81.45
2018-11-10T00:56:30.870Z,81.57
2018-11-10T00:59:01.780Z,81.37
2018-11-10T01:01:37.854Z,81.03
2018-11-10T01:04:09.925Z,81.11
2018-11-10T01:06:41.719Z,81.25
2018-11-10T01:09:12.255Z,81.22
2018-11-10T01:11:42.538Z,81.42
2018-11-10T01:14:13.390Z,81.48
2018-11-10T01:16:43.762Z,81.54
2018-11-10T01:19:13.954Z,81.13
2018-11-10T01:21:44.934Z,80.45
2018-11-10T01:24:15.636Z,80.15
2018-11-10T01:26:44.988Z,80.27
2018-11-10T01:29:16.782Z,80.46
2018-11-10T01:31:47.449Z,80.45
2018-11-10T01:34:21.019Z,80.17
2018-11-10T01:36:52.162Z,80.39
2018-11-10T01:39:22.045Z,80.50
2018-11-10T01:41:53.034Z,80.48
2018-11-10T01:44:26.930Z,80.32
2018-11-10T01:46:57.466Z,80.52
2018-11-10T01:49:28.151Z,80.16
2018-11-10T01:51:59.383Z,80.13
2018-11-10T01:54:29.052Z,80.46
2018-11-10T01:57:00.156Z,80.52
2018-11-10T01:59:30.252Z,80.90
2018-11-10T02:02:01.183Z,80.32
2018-11-10T02:04:31.149Z,80.49
2018-11-10T02:07:02.319Z,80.34
2018-11-10T02:09:32.300Z,80.09
2018-11-10T02:12:04.414Z,79.78
2018-11-10T02:14:35.146Z,79.63
2018-11-10T02:17:07.247Z,79.97
2018-11-10T02:19:38.550Z,80.46
2018-11-10T02:22:08.339Z,80.45
2018-11-10T02:24:38.389Z,80.79
2018-11-10T02:27:14.456Z,80.52
2018-11-10T02:29:44.762Z,80.68
2018-11-10T02:32:16.361Z,80.70
2018-11-10T02:34:47.146Z,80.48
2018-11-10T02:37:17.321Z,80.10
2018-11-10T02:39:47.383Z,80.26
2018-11-10T02:42:18.206Z,80.70
2018-11-10T02:44:49.538Z,80.57
2018-11-10T02:47:20.290Z,80.65
2018-11-10T02:49:50.326Z,80.67
2018-11-10T02:52:21.314Z,81.14
2018-11-10T02:54:52.411Z,81.25
2018-11-10T02:57:23.322Z,80.99
2018-11-10T02:59:53.390Z,80.35
2018-11-10T03:02:24.453Z,80.55
2018-11-10T03:04:55.508Z,81.05
2018-11-10T03:07:25.503Z,81.33
2018-11-10T03:09:56.619Z,80.89
2018-11-10T03:12:26.615Z,80.77
2018-11-10T03:14:57.411Z,81.00
2018-11-10T03:17:27.478Z,81.01
2018-11-10T03:19:58.380Z,81.37
2018-11-10T03:22:28.917Z,81.41
2018-11-10T03:24:59.314Z,81.07
2018-11-10T03:27:32.585Z,80.90
2018-11-10T03:30:03.427Z,81.08
2018-11-10T03:32:34.698Z,81.23
2018-11-10T03:35:07.562Z,81.07
2018-11-10T03:37:38.326Z,81.19
2018-11-10T03:40:09.952Z,81.59
2018-11-10T03:42:41.734Z,81.44
2018-11-10T03:45:13.265Z,81.23
2018-11-10T03:47:49.594Z,80.85
2018-11-10T03:50:19.633Z,81.14
2018-11-10T03:52:50.603Z,80.78
2018-11-10T03:55:21.483Z,81.03
2018-11-10T03:57:52.102Z,80.72
2018-11-10T04:00:22.698Z,81.08
2018-11-10T04:02:53.559Z,81.22
2018-11-10T04:05:23.654Z,81.56
2018-11-10T04:07:54.729Z,81.43
2018-11-10T04:10:25.653Z,81.30
2018-11-10T04:12:55.803Z,81.92
2018-11-10T04:15:26.749Z,82.15
2018-11-10T04:17:57.754Z,81.87
2018-11-10T04:20:27.880Z,81.51
2018-11-10T04:22:58.932Z,81.73
2018-11-10T04:25:29.690Z,81.90
2018-11-10T04:27:59.910Z,81.68
2018-11-10T04:30:30.634Z,81.22
2018-11-10T04:33:03.770Z,81.33
2018-11-10T04:35:34.801Z,81.03
2018-11-10T04:38:05.990Z,81.27
2018-11-10T04:40:38.255Z,80.97
2018-11-10T04:43:09.873Z,81.34
2018-11-10T04:45:39.192Z,80.95
2018-11-10T04:48:10.813Z,80.72
2018-11-10T04:50:49.578Z,80.80
2018-11-10T04:53:22.659Z,80.76
2018-11-10T04:55:56.674Z,80.64
2018-11-10T04:58:27.922Z,80.88
2018-11-10T05:00:58.378Z,80.60
2018-11-10T05:03:28.874Z,80.51
2018-11-10T05:06:02.832Z,80.81
2018-11-10T05:08:32.887Z,80.50
2018-11-10T05:11:04.998Z,79.99
2018-11-10T05:13:35.100Z,79.79
2018-11-10T05:16:06.566Z,80.55
2018-11-10T05:18:35.927Z,80.50
2018-11-10T05:21:09.933Z,80.40
2018-11-10T05:23:39.327Z,80.59
2018-11-10T05:26:11.072Z,79.78
2018-11-10T05:28:42.615Z,79.71
2018-11-10T05:31:13.311Z,79.66
2018-11-10T05:33:45.210Z,79.50
2018-11-10T05:36:17.153Z,80.03
2018-11-10T05:38:47.626Z,79.85
2018-11-10T05:41:18.102Z,80.20
2018-11-10T05:43:48.098Z,80.90
2018-11-10T05:46:19.122Z,81.12
2018-11-10T05:48:49.491Z,80.66
2018-11-10T05:51:20.259Z,80.30
2018-11-10T05:53:50.540Z,80.09
2018-11-10T05:56:21.348Z,80.19
2018-11-10T05:58:51.274Z,80.52
2018-11-10T06:01:22.195Z,80.45
2018-11-10T06:03:52.857Z,80.20
2018-11-10T06:06:23.386Z,79.92
2018-11-10T06:08:53.994Z,79.72
2018-11-10T06:11:27.516Z,79.38
2018-11-10T06:13:58.123Z,79.71
2018-11-10T06:16:29.300Z,79.95
2018-11-10T06:18:59.550Z,79.38
2018-11-10T06:21:30.543Z,78.93
2018-11-10T06:24:01.358Z,79.22
2018-11-10T06:26:31.111Z,79.42
2018-11-10T06:29:02.382Z,79.56
2018-11-10T06:31:33.633Z,79.43
2018-11-10T06:34:03.761Z,79.71
2018-11-10T06:36:34.310Z,79.69
2018-11-10T06:39:10.003Z,80.21
2018-11-10T06:41:39.355Z,80.66
2018-11-10T06:44:15.212Z,80.79
2018-11-10T06:46:48.202Z,80.31
2018-11-10T06:49:19.391Z,81.00
2018-11-10T06:51:49.578Z,81.21
2018-11-10T06:54:21.111Z,81.09
2018-11-10T06:56:51.594Z,81.01
2018-11-10T06:59:22.034Z,81.34
2018-11-10T07:01:52.410Z,81.28
2018-11-10T07:04:23.170Z,81.38
2018-11-10T07:07:02.779Z,80.68
2018-11-10T07:09:33.577Z,81.07
2018-11-10T07:12:03.766Z,81.43
2018-11-10T07:14:34.607Z,80.60
2018-11-10T07:17:04.719Z,80.68
2018-11-10T07:19:35.487Z,80.51
2018-11-10T07:22:05.550Z,80.39
2018-11-10T07:24:36.652Z,79.94
2018-11-10T07:27:09.094Z,80.43
2018-11-10T07:29:38.722Z,80.46
2018-11-10T07:32:10.660Z,80.59
2018-11-10T07:34:42.752Z,80.84
2018-11-10T07:37:12.672Z,80.81
2018-11-10T07:39:42.636Z,81.09
2018-11-10T07:42:13.758Z,80.90
2018-11-10T07:44:45.738Z,81.06
2018-11-10T07:47:18.459Z,80.80
2018-11-10T07:49:51.449Z,81.08
2018-11-10T07:52:22.663Z,81.06
2018-11-10T07:54:53.994Z,80.85
2018-11-10T07:57:24.727Z,80.14
2018-11-10T07:59:54.686Z,81.33
2018-11-10T08:02:25.666Z,82.76
2018-11-10T08:04:55.627Z,82.63
2018-11-10T08:07:26.890Z,83.77
2018-11-10T08:09:57.603Z,84.79
2018-11-10T08:12:27.861Z,84.68
2018-11-10T08:14:58.650Z,85.30
2018-11-10T08:17:33.909Z,85.27
2018-11-10T08:20:05.218Z,85.06
2018-11-10T08:22:34.975Z,85.20
2018-11-10T08:25:07.733Z,85.21
2018-11-10T08:27:38.975Z,84.02
2018-11-10T08:30:11.902Z,84.64
2018-11-10T08:32:42.512Z,84.83
2018-11-10T08:35:14.730Z,84.19
2018-11-10T08:37:44.342Z,84.64
2018-11-10T08:40:16.077Z,84.69
2018-11-10T08:42:45.610Z,84.30
2018-11-10T08:45:16.535Z,83.17
2018-11-10T08:47:46.760Z,83.56
2018-11-10T08:50:17.598Z,83.77
2018-11-10T08:52:53.840Z,83.76
2018-11-10T08:55:26.807Z,83.68
2018-11-10T08:57:57.922Z,82.81
2018-11-10T09:00:28.059Z,81.99
2018-11-10T09:02:58.065Z,81.79
2018-11-10T09:05:29.035Z,82.64
2018-11-10T09:07:59.959Z,83.07
2018-11-10T09:10:30.754Z,82.73
2018-11-10T09:13:01.039Z,83.26
2018-11-10T09:15:31.020Z,83.26
2018-11-10T09:18:02.998Z,83.61
2018-11-10T09:20:35.162Z,82.98
2018-11-10T09:23:06.164Z,82.95
2018-11-10T09:25:36.059Z,83.23
2018-11-10T09:28:06.443Z,84.03
2018-11-10T09:30:37.254Z,82.71
2018-11-10T09:33:08.219Z,84.06
2018-11-10T09:35:38.087Z,84.20
2018-11-10T09:38:10.846Z,84.68
2018-11-10T09:41:01.091Z,84.29
2018-11-10T09:43:33.211Z,84.78
2018-11-10T09:46:04.804Z,84.52
2018-11-10T09:48:34.219Z,82.95
2018-11-10T09:51:04.562Z,82.74
2018-11-10T09:53:33.979Z,83.35
2018-11-10T09:56:11.310Z,84.06
2018-11-10T09:58:42.196Z,84.35
2018-11-10T10:01:11.839Z,82.90
2018-11-10T10:03:41.201Z,83.01
2018-11-10T10:06:13.456Z,81.80
2018-11-10T10:08:45.566Z,81.07
2018-11-10T10:11:16.408Z,81.48
2018-11-10T10:13:48.072Z,81.34
2018-11-10T10:16:18.183Z,82.67
2018-11-10T10:18:48.827Z,82.31
2018-11-10T10:21:19.206Z,82.67
2018-11-10T10:23:49.718Z,81.62
2018-11-10T10:26:20.317Z,82.55
2018-11-10T10:28:50.858Z,82.44
2018-11-10T10:31:21.274Z,81.39
2018-11-10T10:33:54.711Z,81.08
2018-11-10T10:36:25.323Z,81.29
2018-11-10T10:39:02.462Z,80.98
2018-11-10T10:41:35.619Z,81.06
2018-11-10T10:44:09.440Z,80.95
2018-11-10T10:46:38.934Z,81.57
2018-11-10T10:49:10.741Z,81.58
2018-11-10T10:51:43.419Z,82.85
2018-11-10T10:54:13.088Z,83.16
2018-11-10T10:56:45.351Z,82.66
2018-11-10T10:59:15.480Z,83.05
2018-11-10T11:01:52.236Z,83.35
2018-11-10T11:04:36.585Z,83.48
2018-11-10T11:07:07.606Z,83.35
2018-11-10T11:09:44.157Z,83.67
2018-11-10T11:15:13.758Z,83.52
2018-11-10T11:17:48.473Z,82.42
2018-11-10T11:20:21.666Z,82.73
2018-11-10T11:22:51.606Z,83.21
2018-11-10T11:25:22.668Z,83.15
2018-11-10T11:27:52.618Z,83.26
2018-11-10T11:30:23.716Z,82.37
2018-11-10T11:32:53.661Z,82.59
2018-11-10T11:35:23.642Z,82.55
2018-11-10T11:37:57.378Z,83.71
2018-11-10T11:40:28.624Z,82.96
2018-11-10T11:42:58.771Z,82.88
2018-11-10T11:45:28.685Z,83.51
2018-11-10T11:47:59.715Z,82.68
2018-11-10T11:50:29.622Z,81.71
2018-11-10T11:53:03.662Z,81.44
2018-11-10T11:55:35.712Z,81.99
2018-11-10T11:58:07.027Z,83.09
2018-11-10T12:00:37.917Z,81.50
2018-11-10T12:03:08.944Z,82.10
2018-11-10T12:05:42.667Z,83.08
2018-11-10T12:08:15.726Z,82.50
2018-11-10T12:10:48.495Z,83.08
2018-11-10T12:13:21.755Z,82.86
2018-11-10T12:15:56.169Z,82.31
2018-11-10T12:18:27.123Z,81.75
2018-11-10T12:20:57.638Z,80.57
2018-11-10T12:23:31.863Z,81.32
2018-11-10T12:26:02.023Z,81.90
2018-11-10T12:28:31.938Z,81.35
2018-11-10T12:31:06.142Z,82.90
2018-11-10T12:33:36.986Z,82.46
2018-11-10T12:36:07.939Z,82.99
2018-11-10T12:38:37.881Z,81.95
2018-11-10T12:41:07.995Z,81.51
2018-11-10T12:43:37.828Z,83.17
2018-11-10T12:46:08.003Z,82.01
2018-11-10T12:48:39.309Z,83.02
2018-11-10T12:51:09.606Z,83.20
2018-11-10T12:53:39.124Z,82.45
2018-11-10T12:56:09.655Z,83.88
2018-11-10T12:58:39.239Z,82.99
2018-11-10T13:01:08.990Z,82.53
2018-11-10T13:03:39.190Z,82.79
2018-11-10T13:06:09.018Z,83.48
2018-11-10T13:08:39.310Z,84.24
2018-11-10T13:11:11.466Z,83.29
2018-11-10T13:13:43.346Z,83.13
2018-11-10T13:16:14.122Z,83.32
2018-11-10T13:18:43.500Z,83.75
2018-11-10T13:21:15.993Z,83.43
2018-11-10T13:23:49.060Z,82.45
2018-11-10T13:26:19.118Z,82.61
2018-11-10T13:28:54.107Z,82.94
2018-11-10T13:31:24.403Z,82.98
2018-11-10T13:33:56.260Z,82.85
2018-11-10T13:36:26.794Z,83.74
2018-11-10T13:38:57.247Z,83.79
2018-11-10T13:41:27.955Z,82.67
2018-11-10T13:43:58.265Z,82.83
2018-11-10T13:46:33.922Z,82.69
2018-11-10T13:49:05.668Z,83.64
2018-11-10T13:51:36.499Z,83.32
2018-11-10T13:54:07.751Z,82.69
2018-11-10T13:56:37.315Z,82.54
2018-11-10T13:59:09.153Z,82.52
2018-11-10T14:01:39.085Z,82.47
2018-11-10T14:04:09.940Z,82.53
2018-11-10T14:06:39.600Z,82.41
2018-11-10T14:09:11.057Z,82.46
2018-11-10T14:11:42.518Z,81.38
2018-11-10T14:14:14.726Z,81.57
2018-11-10T14:16:45.472Z,82.77
2018-11-10T14:19:15.657Z,81.69
2018-11-10T14:21:45.473Z,81.75
2018-11-10T14:24:16.476Z,81.94
2018-11-10T14:26:45.873Z,82.35
2018-11-10T14:29:17.735Z,82.63
2018-11-10T14:31:49.602Z,82.10
2018-11-10T14:34:20.374Z,82.63
2018-11-10T14:36:50.971Z,82.50
2018-11-10T14:39:22.691Z,82.78
2018-11-10T14:41:52.530Z,81.98
2018-11-10T14:44:23.435Z,83.01
2018-11-10T14:46:56.286Z,81.93
2018-11-10T14:49:26.386Z,82.05
2018-11-10T14:52:00.423Z,82.46
2018-11-10T14:54:30.544Z,81.95
2018-11-10T14:57:01.598Z,82.17
2018-11-10T14:59:31.698Z,81.77
2018-11-10T15:02:03.768Z,82.71
2018-11-10T15:04:39.134Z,82.64
2018-11-10T15:07:09.534Z,83.37
2018-11-10T15:09:39.485Z,83.42
2018-11-10T15:12:10.777Z,83.50
2018-11-10T15:14:40.075Z,82.87
2018-11-10T15:17:11.760Z,83.30
2018-11-10T15:19:42.722Z,82.79
2018-11-10T15:22:13.656Z,82.91
2018-11-10T15:24:45.632Z,82.53
2018-11-10T15:27:16.686Z,83.10
2018-11-10T15:29:48.661Z,83.63
2018-11-10T15:32:20.211Z,82.00
2018-11-10T15:34:50.834Z,82.17
2018-11-10T15:37:21.519Z,82.16
2018-11-10T15:39:51.730Z,82.64
2018-11-10T15:42:22.715Z,81.40
2018-11-10T15:44:52.961Z,81.87
2018-11-10T15:47:23.646Z,82.44
2018-11-10T15:49:54.171Z,83.19
2018-11-10T15:52:23.578Z,82.96
2018-11-10T15:54:53.732Z,82.88
2018-11-10T15:57:25.626Z,83.01
2018-11-10T15:59:55.873Z,82.95
2018-11-10T16:02:25.263Z,83.00
2018-11-10T16:04:57.068Z,83.25
2018-11-10T16:07:26.439Z,82.30
2018-11-10T16:09:58.123Z,82.52
2018-11-10T16:12:28.007Z,82.64
2018-11-10T16:14:58.906Z,82.55
2018-11-10T16:17:28.854Z,82.59
2018-11-10T16:19:59.646Z,82.46
2018-11-10T16:22:29.847Z,82.31
2018-11-10T16:25:00.756Z,82.04
2018-11-10T16:27:30.883Z,82.00
2018-11-10T16:30:05.639Z,81.99
2018-11-10T16:32:36.075Z,81.50
2018-11-10T16:35:07.510Z,82.40
2018-11-10T16:37:39.278Z,82.71
2018-11-10T16:40:13.627Z,82.67
2018-11-10T16:42:44.478Z,82.42
2018-11-10T16:45:15.619Z,83.15
2018-11-10T16:47:46.067Z,83.19
2018-11-10T16:50:18.042Z,82.92
2018-11-10T16:52:55.506Z,81.75
2018-11-10T16:55:25.962Z,82.47
2018-11-10T16:57:59.070Z,82.88
2018-11-10T17:00:33.042Z,82.87
2018-11-10T17:03:06.271Z,83.03
2018-11-10T17:05:39.294Z,83.06
2018-11-10T17:08:11.106Z,83.01
2018-11-10T17:10:41.770Z,83.72
2018-11-10T17:13:12.090Z,83.96
2018-11-10T17:15:42.725Z,83.91
2018-11-10T17:18:13.048Z,83.78
2018-11-10T17:20:43.289Z,83.93
2018-11-10T17:23:19.956Z,84.10
2018-11-10T17:25:50.214Z,84.19
2018-11-10T17:28:21.021Z,84.24
2018-11-10T17:30:51.283Z,84.28
2018-11-10T17:33:22.398Z,83.92
2018-11-10T17:35:52.212Z,84.38
2018-11-10T17:38:22.236Z,84.26
2018-11-10T17:41:00.132Z,83.62
2018-11-10T17:43:38.299Z,83.57
2018-11-10T17:46:09.286Z,83.58
2018-11-10T17:48:40.275Z,83.73
2018-11-10T17:51:13.306Z,84.12
2018-11-10T17:53:43.418Z,84.20
2018-11-10T17:56:14.278Z,83.73
2018-11-10T17:58:46.450Z,84.11
2018-11-10T18:01:18.265Z,83.40
2018-11-10T18:03:53.823Z,83.20
2018-11-10T18:06:25.343Z,83.16
2018-11-10T18:08:55.688Z,83.48
2018-11-10T18:11:26.347Z,83.69
2018-11-10T18:13:56.391Z,83.61
2018-11-10T18:16:27.510Z,83.49
2018-11-10T18:18:58.716Z,83.26
2018-11-10T18:21:28.530Z,83.47
2018-11-10T18:23:59.604Z,83.93
2018-11-10T18:26:29.542Z,83.76
2018-11-10T18:29:00.692Z,82.68
2018-11-10T18:31:31.483Z,83.21
2018-11-10T18:34:02.466Z,82.87
2018-11-10T18:36:33.790Z,82.68
2018-11-10T18:39:05.270Z,82.88
2018-11-10T18:41:36.599Z,82.68
2018-11-10T18:44:09.712Z,82.50
2018-11-10T18:46:40.370Z,82.46
2018-11-10T18:49:14.375Z,82.21
2018-11-10T18:51:43.742Z,81.44
2018-11-10T18:54:15.020Z,81.85
2018-11-10T18:56:47.473Z,81.92
2018-11-10T18:59:18.570Z,81.80
2018-11-10T19:01:49.566Z,82.76
2018-11-10T19:04:19.576Z,82.98
2018-11-10T19:06:49.638Z,83.21
2018-11-10T19:09:21.302Z,83.05
2018-11-10T19:11:55.286Z,82.98
2018-11-10T19:14:28.491Z,82.68
2018-11-10T19:17:01.601Z,83.05
2018-11-10T19:19:32.815Z,83.10
2018-11-10T19:22:02.842Z,82.67
2018-11-10T19:24:34.778Z,82.51
2018-11-10T19:27:05.034Z,82.42
2018-11-10T19:29:34.829Z,81.92
2018-11-10T19:32:08.627Z,82.29
2018-11-10T19:34:38.739Z,82.62
2018-11-10T19:37:09.751Z,83.01
2018-11-10T19:39:42.948Z,83.05
2018-11-10T19:42:14.785Z,83.20
2018-11-10T19:44:45.453Z,82.93
2018-11-10T19:47:15.814Z,83.11
2018-11-10T19:49:47.170Z,83.30
2018-11-10T19:52:18.795Z,83.38
2018-11-10T19:54:48.510Z,83.59
2018-11-10T19:57:24.932Z,83.34
2018-11-10T19:59:54.930Z,83.85
2018-11-10T20:02:26.113Z,83.55
2018-11-10T20:04:56.033Z,83.59
2018-11-10T20:07:28.139Z,83.43
2018-11-10T20:10:00.175Z,83.13
2018-11-10T20:12:30.943Z,83.35
2018-11-10T20:15:01.036Z,82.84
2018-11-10T20:17:32.036Z,83.00
2018-11-10T20:20:02.047Z,83.16
2018-11-10T20:22:33.121Z,82.95
2018-11-10T20:25:02.884Z,83.42
2018-11-10T20:27:33.988Z,82.85
2018-11-10T20:30:06.860Z,82.76
2018-11-10T20:32:37.124Z,83.46
2018-11-10T20:41:08.369Z,83.48
2018-11-10T20:43:38.065Z,83.08
2018-11-10T20:46:09.243Z,83.12
2018-11-10T20:48:39.043Z,82.85
2018-11-10T20:51:12.240Z,82.87
2018-11-10T20:53:43.106Z,82.60
2018-11-10T20:56:13.300Z,82.59
2018-11-10T20:58:43.154Z,81.70
2018-11-10T21:01:16.870Z,82.43
2018-11-10T21:03:54.045Z,83.12
2018-11-10T21:06:24.313Z,83.21
2018-11-10T21:08:55.154Z,83.13
2018-11-10T21:11:25.251Z,83.62
2018-11-10T21:13:57.283Z,83.90
2018-11-10T21:16:29.384Z,83.62
2018-11-10T21:19:00.710Z,83.70
2018-11-10T21:21:30.666Z,83.28
2018-11-10T21:24:01.438Z,83.28
2018-11-10T21:26:33.163Z,83.75
2018-11-10T21:29:09.235Z,84.37
2018-11-10T21:31:38.516Z,84.44
2018-11-10T21:34:10.073Z,84.29
2018-11-10T21:36:39.366Z,84.00
2018-11-10T21:39:11.242Z,83.99
2018-11-10T21:41:40.947Z,83.60
2018-11-10T21:44:10.464Z,83.72
2018-11-10T21:46:39.978Z,84.19
2018-11-10T21:49:11.406Z,84.30
2018-11-10T21:51:40.726Z,84.44
2018-11-10T21:54:12.349Z,84.08
2018-11-10T21:56:43.339Z,83.95
2018-11-10T21:59:16.156Z,83.81
2018-11-10T22:01:47.694Z,83.86
2018-11-10T22:04:17.814Z,83.70
2018-11-10T22:06:48.334Z,83.26
2018-11-10T22:09:18.600Z,83.32
2018-11-10T22:11:49.845Z,83.50
2018-11-10T22:14:19.433Z,83.46
2018-11-10T22:16:51.374Z,83.28
2018-11-10T22:19:26.342Z,83.04
2018-11-10T22:22:03.284Z,83.31
2018-11-10T22:24:39.291Z,83.02
2018-11-10T22:27:16.357Z,83.16
2018-11-10T22:29:49.551Z,83.39
2018-11-10T22:32:20.439Z,83.31
2018-11-10T22:34:51.378Z,83.54
2018-11-10T22:37:21.603Z,83.62
2018-11-10T22:39:52.517Z,83.13
2018-11-10T22:42:23.471Z,83.30
2018-11-10T22:44:54.018Z,83.03
2018-11-10T22:47:24.642Z,82.94
2018-11-10T22:49:58.424Z,82.77
2018-11-10T22:52:28.654Z,83.22
2018-11-10T22:55:04.482Z,82.95
2018-11-10T22:57:40.179Z,82.96
2018-11-10T23:00:23.234Z,82.84
2018-11-10T23:02:56.077Z,82.99
2018-11-10T23:05:27.998Z,82.73
2018-11-10T23:07:58.331Z,82.73
2018-11-10T23:10:28.517Z,83.06
2018-11-10T23:12:58.645Z,83.18
2018-11-10T23:15:29.776Z,83.29
2018-11-10T23:18:02.714Z,82.93
2018-11-10T23:20:33.817Z,82.73
2018-11-10T23:23:04.490Z,83.04
2018-11-10T23:25:34.762Z,82.97
2018-11-10T23:28:05.119Z,82.58
2018-11-10T23:30:35.839Z,83.00
2018-11-10T23:33:06.125Z,82.78
2018-11-10T23:35:36.930Z,82.39
2018-11-10T23:38:09.828Z,82.18
2018-11-10T23:40:43.906Z,81.72
2018-11-10T23:43:14.065Z,81.66
2018-11-10T23:45:45.307Z,81.30
2018-11-10T23:48:16.800Z,81.64
2018-11-10T23:50:49.628Z,81.67
2018-11-10T23:53:19.151Z,81.60
2018-11-10T23:55:50.262Z,81.90
2018-11-10T23:58:20.980Z,81.20
